This is the latest recevied weather packets stored in our database for station/object IU7URP-17. If no packets are shown the sender has not sent any weather packets the latest 10 day(s).
| Time | Temp. | Humidity | Pressure | Rain* | Wind** | Luminosity | Snow |
|---|---|---|---|---|---|---|---|
| 1788678973 | 31.67° C | 37% | 1019.8 hPa | - | - | - | - |
| 1788677769 | 31.67° C | 40% | 1019.8 hPa | - | - | - | - |
| 1788675361 | 29.44° C | 46% | 1019.7 hPa | - | - | - | - |
| 1788672953 | 26.67° C | 57% | 1019.7 hPa | - | - | - | - |
| 1788671749 | 25° C | 63% | 1019.8 hPa | - | - | - | - |
| 1788669340 | 21.67° C | 72% | 1019.8 hPa | - | - | - | - |
| 1788666931 | 21.11° C | 74% | 1019.5 hPa | - | - | - | - |
| 1788665727 | 21.11° C | 74% | 1019.6 hPa | - | - | - | - |
| 1788664522 | 21.11° C | 76% | 1019.5 hPa | - | - | - | - |
| 1788663317 | 21.11° C | 76% | 1019.6 hPa | - | - | - | - |
| 1788660909 | 21.67° C | 74% | 1019.5 hPa | - | - | - | - |
| 1788654889 | 22.78° C | 73% | 1019.3 hPa | - | - | - | - |
| 1788653685 | 23.33° C | 72% | 1019.4 hPa | - | - | - | - |
| 1788650074 | 23.89° C | 69% | 1019.6 hPa | - | - | - | - |
| 1788647665 | 23.33° C | 68% | 1019.7 hPa | - | - | - | - |
| 1788646461 | 23.89° C | 66% | 1019.7 hPa | - | - | - | - |
| 1788644053 | 24.44° C | 65% | 1019.3 hPa | - | - | - | - |
| 1788642849 | 24.44° C | 65% | 1019.5 hPa | - | - | - | - |
| 1788641646 | 24.44° C | 64% | 1019.4 hPa | - | - | - | - |
| 1788640442 | 25° C | 62% | 1019.3 hPa | - | - | - | - |
| 1788639237 | 25° C | 58% | 1019.3 hPa | - | - | - | - |
| 1788638033 | 25.56° C | 56% | 1019.4 hPa | - | - | - | - |
| 1788636829 | 25.56° C | 53% | 1019.3 hPa | - | - | - | - |
| 1788635626 | 25.56° C | 51% | 1019.1 hPa | - | - | - | - |
| 1788634421 | 26.11° C | 51% | 1018.9 hPa | - | - | - | - |
* Rain since midnight (hover to see other rain measurements)
** Current wind speed in m/s (hover to see current wind gust speed)